createdAt,value
2017-05-09T00:00:50.243Z,101716
2017-05-09T00:03:19.527Z,101714
2017-05-09T00:05:48.819Z,101707
2017-05-09T00:08:18.543Z,101685
2017-05-09T00:10:48.254Z,101690
2017-05-09T00:13:18.171Z,101706
2017-05-09T00:15:47.677Z,101698
2017-05-09T00:18:17.397Z,101705
2017-05-09T00:20:46.686Z,101703
2017-05-09T00:23:15.993Z,101708
2017-05-09T00:25:45.223Z,101704
2017-05-09T00:28:14.985Z,101700
2017-05-09T00:30:44.508Z,101700
2017-05-09T00:33:14.422Z,101693
2017-05-09T00:35:44.032Z,101683
2017-05-09T00:38:13.332Z,101693
2017-05-09T00:40:42.944Z,101682
2017-05-09T00:43:12.203Z,101682
2017-05-09T00:45:41.546Z,101674
2017-05-09T00:48:11.055Z,101682
2017-05-09T00:50:40.562Z,101673
2017-05-09T00:53:10.065Z,101667
2017-05-09T00:55:39.368Z,101669
2017-05-09T00:58:08.662Z,101652
2017-05-09T01:00:38.582Z,101655
2017-05-09T01:03:07.885Z,101657
2017-05-09T01:05:37.802Z,101653
2017-05-09T01:08:07.088Z,101662
2017-05-09T01:10:36.693Z,101652
2017-05-09T01:13:06.116Z,101667
2017-05-09T01:15:35.600Z,101654
2017-05-09T01:18:05.128Z,101668
2017-05-09T01:20:34.431Z,101657
2017-05-09T01:23:04.039Z,101657
2017-05-09T01:25:34.313Z,101658
2017-05-09T01:28:04.181Z,101655
2017-05-09T01:30:33.688Z,101641
2017-05-09T01:33:02.966Z,101642
2017-05-09T01:35:32.492Z,101647
2017-05-09T01:38:01.795Z,101640
2017-05-09T01:40:31.506Z,101649
2017-05-09T01:43:01.012Z,101639
2017-05-09T01:45:31.117Z,101637
2017-05-09T01:48:00.524Z,101650
2017-05-09T01:50:30.144Z,101641
2017-05-09T01:52:59.449Z,101647
2017-05-09T01:55:28.748Z,101648
2017-05-09T01:57:58.055Z,101636
2017-05-09T02:00:27.559Z,101653
2017-05-09T02:02:57.269Z,101645
2017-05-09T02:05:26.775Z,101635
2017-05-09T02:07:56.267Z,101638
2017-05-09T02:10:25.653Z,101646
2017-05-09T02:12:55.495Z,101645
2017-05-09T02:15:24.797Z,101636
2017-05-09T02:17:54.713Z,101646
2017-05-09T02:20:24.003Z,101639
2017-05-09T02:22:53.406Z,101643
2017-05-09T02:25:22.915Z,101636
2017-05-09T02:27:52.557Z,101637
2017-05-09T02:30:22.041Z,101641
2017-05-09T02:32:51.545Z,101638
2017-05-09T02:35:20.847Z,101641
2017-05-09T02:37:50.259Z,101639
2017-05-09T02:40:20.677Z,101647
2017-05-09T02:42:50.499Z,101672
2017-05-09T02:45:20.101Z,101639
2017-05-09T02:47:49.813Z,101642
2017-05-09T02:50:19.729Z,101640
2017-05-09T02:52:49.236Z,101642
2017-05-09T02:55:18.569Z,101635
2017-05-09T02:57:48.254Z,101634
2017-05-09T03:00:17.549Z,101627
2017-05-09T03:02:46.849Z,101630
2017-05-09T03:05:16.357Z,101628
2017-05-09T03:07:45.660Z,101619
2017-05-09T03:10:15.575Z,101623
2017-05-09T03:12:44.875Z,101615
2017-05-09T03:15:14.384Z,101630
2017-05-09T03:17:43.673Z,101623
2017-05-09T03:20:13.193Z,101632
2017-05-09T03:22:42.491Z,101622
2017-05-09T03:25:12.200Z,101617
2017-05-09T03:27:41.506Z,101618
2017-05-09T03:30:11.011Z,101620
2017-05-09T03:32:40.516Z,101612
2017-05-09T03:35:10.432Z,101617
2017-05-09T03:37:39.941Z,101604
2017-05-09T03:40:09.441Z,101606
2017-05-09T03:42:39.361Z,101596
2017-05-09T03:45:09.071Z,101593
2017-05-09T03:47:38.988Z,101593
2017-05-09T03:50:08.801Z,101602
2017-05-09T03:52:38.206Z,101600
2017-05-09T03:55:07.812Z,101592
2017-05-09T03:57:37.422Z,101591
2017-05-09T04:00:07.137Z,101593
2017-05-09T04:02:36.640Z,101595
2017-05-09T04:05:06.146Z,101595
2017-05-09T04:07:42.069Z,101601
2017-05-09T04:10:12.406Z,101602
2017-05-09T04:12:42.243Z,101606
2017-05-09T04:15:11.549Z,101603
2017-05-09T04:17:41.256Z,101604
2017-05-09T04:20:10.559Z,101604
2017-05-09T04:22:39.848Z,101597
2017-05-09T04:25:09.574Z,101604
2017-05-09T04:27:38.874Z,101606
2017-05-09T04:30:08.378Z,101602
2017-05-09T04:32:37.671Z,101618
2017-05-09T04:35:06.981Z,101603
2017-05-09T04:37:36.284Z,101608
2017-05-09T04:40:06.215Z,101607
2017-05-09T04:42:35.501Z,101623
2017-05-09T04:45:04.800Z,101621
2017-05-09T04:47:34.089Z,101625
2017-05-09T04:50:03.611Z,101612
2017-05-09T04:52:32.920Z,101633
2017-05-09T04:55:02.194Z,101638
2017-05-09T04:57:31.717Z,101651
2017-05-09T05:00:01.643Z,101638
2017-05-09T05:02:31.344Z,101642
2017-05-09T05:05:01.056Z,101646
2017-05-09T05:07:31.190Z,101654
2017-05-09T05:10:00.684Z,101655
2017-05-09T05:12:30.189Z,101658
2017-05-09T05:14:59.901Z,101657
2017-05-09T05:17:29.510Z,101653
2017-05-09T05:19:58.915Z,101650
2017-05-09T05:22:28.633Z,101656
2017-05-09T05:24:58.343Z,101659
2017-05-09T05:27:27.840Z,101654
2017-05-09T05:29:57.210Z,101645
2017-05-09T05:32:26.652Z,101650
2017-05-09T05:34:56.158Z,101641
2017-05-09T05:37:25.865Z,101638
2017-05-09T05:39:55.580Z,101639
2017-05-09T05:42:25.698Z,101640
2017-05-09T05:44:55.208Z,101641
2017-05-09T05:47:24.711Z,101631
2017-05-09T05:49:54.218Z,101636
2017-05-09T05:52:24.135Z,101633
2017-05-09T05:54:53.640Z,101629
2017-05-09T05:57:23.352Z,101634
2017-05-09T05:59:52.857Z,101624
2017-05-09T06:02:22.158Z,101635
2017-05-09T06:04:51.449Z,101641
2017-05-09T06:07:20.757Z,101638
2017-05-09T06:09:50.258Z,101640
2017-05-09T06:12:19.571Z,101639
2017-05-09T06:14:49.282Z,101634
2017-05-09T06:17:19.199Z,101635
2017-05-09T06:19:49.113Z,101639
2017-05-09T06:22:18.624Z,101639
2017-05-09T06:24:48.549Z,101629
2017-05-09T06:27:18.044Z,101632
2017-05-09T06:29:47.750Z,101632
2017-05-09T06:32:17.264Z,101639
2017-05-09T06:34:46.765Z,101643
2017-05-09T06:37:16.043Z,101632
2017-05-09T06:39:45.460Z,101632
2017-05-09T06:42:15.079Z,101643
2017-05-09T06:44:44.793Z,101622
2017-05-09T06:47:14.285Z,101616
2017-05-09T06:49:43.661Z,101624
2017-05-09T06:52:13.310Z,101625
2017-05-09T06:54:43.225Z,101626
2017-05-09T06:57:12.939Z,101615
2017-05-09T06:59:42.445Z,101631
2017-05-09T07:02:12.358Z,101624
2017-05-09T07:04:44.587Z,101622
2017-05-09T07:07:13.948Z,101606
2017-05-09T07:09:44.158Z,101620
2017-05-09T07:12:14.893Z,101618
2017-05-09T07:14:44.191Z,101626
2017-05-09T07:17:13.493Z,101633
2017-05-09T07:19:43.204Z,101639
2017-05-09T07:22:12.915Z,101640
2017-05-09T07:24:42.221Z,101646
2017-05-09T07:27:11.723Z,101636
2017-05-09T07:29:41.504Z,101634
2017-05-09T07:32:10.940Z,101629
2017-05-09T07:34:40.652Z,101630
2017-05-09T07:37:10.121Z,101623
2017-05-09T07:39:39.894Z,101637
2017-05-09T07:42:10.094Z,101633
2017-05-09T07:44:39.379Z,101636
2017-05-09T07:47:09.514Z,101624
2017-05-09T07:49:38.819Z,101639
2017-05-09T07:52:08.073Z,101624
2017-05-09T07:54:37.369Z,101623
2017-05-09T07:57:06.620Z,101637
2017-05-09T07:59:35.903Z,101629
2017-05-09T08:02:05.167Z,101626
2017-05-09T08:04:34.609Z,101613
2017-05-09T08:07:04.336Z,101624
2017-05-09T08:09:34.255Z,101621
2017-05-09T08:12:04.169Z,101619
2017-05-09T08:14:33.470Z,101617
2017-05-09T08:17:03.084Z,101616
2017-05-09T08:19:32.382Z,101622
2017-05-09T08:22:02.091Z,101615
2017-05-09T08:24:32.006Z,101627
2017-05-09T08:27:01.513Z,101608
2017-05-09T08:29:30.819Z,101620
2017-05-09T08:32:00.320Z,101616
2017-05-09T08:34:30.119Z,101616
2017-05-09T08:36:59.851Z,101617
2017-05-09T08:39:29.351Z,101624
2017-05-09T08:41:58.858Z,101621
2017-05-09T08:44:28.573Z,101613
2017-05-09T08:46:57.856Z,101624
2017-05-09T08:49:27.378Z,101622
2017-05-09T08:51:56.602Z,101624
2017-05-09T08:54:27.212Z,101621
2017-05-09T08:56:56.716Z,101601
2017-05-09T08:59:26.206Z,101612
2017-05-09T09:01:55.936Z,101603
2017-05-09T09:04:25.234Z,101600
2017-05-09T09:06:54.743Z,101603
2017-05-09T09:09:24.773Z,101605
2017-05-09T09:11:55.599Z,101594
2017-05-09T09:14:25.104Z,101602
2017-05-09T09:16:54.602Z,101605
2017-05-09T09:19:24.115Z,101602
2017-05-09T09:21:53.620Z,101601
2017-05-09T09:24:23.130Z,101592
2017-05-09T09:26:54.608Z,101592
2017-05-09T09:29:25.417Z,101589
2017-05-09T09:31:54.924Z,101581
2017-05-09T09:34:24.427Z,101582
2017-05-09T09:36:53.935Z,101581
2017-05-09T09:39:23.646Z,101590
2017-05-09T09:41:54.697Z,101577
2017-05-09T09:44:30.748Z,101573
2017-05-09T09:47:00.235Z,101559
2017-05-09T09:49:29.559Z,101568
2017-05-09T09:51:58.859Z,101562
2017-05-09T09:54:28.366Z,101558
2017-05-09T09:56:57.876Z,101565
2017-05-09T09:59:27.380Z,101555
2017-05-09T10:01:57.713Z,101560
2017-05-09T10:04:27.193Z,101564
2017-05-09T10:06:56.715Z,101559
2017-05-09T10:09:26.427Z,101562
2017-05-09T10:11:55.726Z,101562
2017-05-09T10:14:25.442Z,101553
2017-05-09T10:16:54.784Z,101548
2017-05-09T10:19:24.860Z,101551
2017-05-09T10:21:54.573Z,101543
2017-05-09T10:24:24.493Z,101538
2017-05-09T10:26:53.783Z,101543
2017-05-09T10:29:23.505Z,101532
2017-05-09T10:31:53.218Z,101530
2017-05-09T10:34:22.534Z,101532
2017-05-09T10:36:52.085Z,101524
2017-05-09T10:39:21.527Z,101523
2017-05-09T10:41:51.022Z,101514
2017-05-09T10:44:20.435Z,101509
2017-05-09T10:46:50.355Z,101512
2017-05-09T10:49:20.067Z,101517
2017-05-09T10:51:49.777Z,101506
2017-05-09T10:54:19.076Z,101502
2017-05-09T10:56:48.368Z,101497
2017-05-09T10:59:17.633Z,101497
2017-05-09T11:01:46.971Z,101499
2017-05-09T11:04:16.328Z,101487
2017-05-09T11:06:45.789Z,101499
2017-05-09T11:09:15.088Z,101487
2017-05-09T11:11:45.004Z,101481
2017-05-09T11:14:15.124Z,101481
2017-05-09T11:16:44.630Z,101474
2017-05-09T11:19:14.345Z,101470
2017-05-09T11:21:43.855Z,101471
2017-05-09T11:24:13.357Z,101467
2017-05-09T11:26:42.871Z,101468
2017-05-09T11:29:12.369Z,101474
2017-05-09T11:31:42.079Z,101455
2017-05-09T11:34:11.776Z,101458
2017-05-09T11:36:41.295Z,101450
2017-05-09T11:39:10.596Z,101452
2017-05-09T11:41:40.309Z,101437
2017-05-09T11:44:09.609Z,101450
2017-05-09T11:46:39.319Z,101447
2017-05-09T11:49:08.825Z,101436
2017-05-09T11:51:38.741Z,101435
2017-05-09T11:54:08.043Z,101429
2017-05-09T11:56:37.753Z,101442
2017-05-09T11:59:07.258Z,101442
2017-05-09T12:01:36.545Z,101442
2017-05-09T12:04:06.068Z,101446
2017-05-09T12:06:35.376Z,101440
2017-05-09T12:09:05.078Z,101444
2017-05-09T12:11:35.137Z,101432
2017-05-09T12:14:05.527Z,101421
2017-05-09T12:16:34.826Z,101425
2017-05-09T12:19:04.246Z,101419
2017-05-09T12:21:33.721Z,101423
2017-05-09T12:24:03.255Z,101427
2017-05-09T12:26:32.543Z,101415
2017-05-09T12:29:01.829Z,101414
2017-05-09T12:31:31.151Z,101418
2017-05-09T12:34:00.657Z,101414
2017-05-09T12:36:30.144Z,101431
2017-05-09T12:38:59.465Z,101412
2017-05-09T12:41:28.765Z,101416
2017-05-09T12:43:58.271Z,101419
2017-05-09T12:46:27.767Z,101404
2017-05-09T12:48:57.281Z,101261
2017-05-09T12:51:26.577Z,101394
2017-05-09T12:53:55.944Z,101393
2017-05-09T12:56:25.803Z,101396
2017-05-09T12:58:55.614Z,101393
2017-05-09T13:01:25.329Z,101385
2017-05-09T13:03:55.615Z,101382
2017-05-09T13:06:26.080Z,101367
2017-05-09T13:08:55.789Z,101371
2017-05-09T13:11:25.934Z,101368
2017-05-09T13:13:55.414Z,101364
2017-05-09T13:16:27.311Z,101351
2017-05-09T13:18:57.089Z,101358
2017-05-09T13:21:27.019Z,101337
2017-05-09T13:23:56.509Z,101332
2017-05-09T13:26:26.020Z,101324
2017-05-09T13:28:55.626Z,101326
2017-05-09T13:31:25.650Z,101306
2017-05-09T13:33:55.151Z,101304
2017-05-09T13:36:24.868Z,101306
2017-05-09T13:38:54.165Z,101297
2017-05-09T13:41:23.670Z,101300
2017-05-09T13:43:53.177Z,101306
2017-05-09T13:46:23.502Z,101296
2017-05-09T13:48:53.013Z,101294
2017-05-09T13:51:22.518Z,101280
2017-05-09T13:53:52.226Z,101274
2017-05-09T13:56:21.738Z,101277
2017-05-09T13:58:51.858Z,101269
2017-05-09T14:01:21.620Z,101273
2017-05-09T14:03:51.274Z,101274
2017-05-09T14:06:20.561Z,101267
2017-05-09T14:08:50.284Z,101266
2017-05-09T14:11:19.796Z,101255
2017-05-09T14:13:49.709Z,101250
2017-05-09T14:16:19.046Z,101255
2017-05-09T14:18:48.722Z,101253
2017-05-09T14:21:18.235Z,101236
2017-05-09T14:23:47.764Z,101238
2017-05-09T14:26:17.859Z,101227
2017-05-09T14:28:47.213Z,101240
2017-05-09T14:31:16.677Z,101224
2017-05-09T14:33:46.170Z,101239
2017-05-09T14:36:15.676Z,101237
2017-05-09T14:38:45.190Z,101229
2017-05-09T14:41:15.106Z,101224
2017-05-09T14:43:44.402Z,101223
2017-05-09T14:46:13.913Z,101222
2017-05-09T14:48:43.421Z,101222
2017-05-09T14:51:13.118Z,101216
2017-05-09T14:53:42.942Z,101217
2017-05-09T14:56:12.693Z,101199
2017-05-09T14:58:42.160Z,101210
2017-05-09T15:01:11.909Z,101207
2017-05-09T15:03:41.255Z,101199
2017-05-09T15:06:11.901Z,101192
2017-05-09T15:08:44.506Z,101195
2017-05-09T15:11:14.805Z,101181
2017-05-09T15:13:44.719Z,101182
2017-05-09T15:16:16.036Z,101179
2017-05-09T15:18:45.378Z,101183
2017-05-09T15:21:17.518Z,101184
2017-05-09T15:23:47.264Z,101176
2017-05-09T15:26:16.757Z,101182
2017-05-09T15:28:46.270Z,101162
2017-05-09T15:31:15.771Z,101176
2017-05-09T15:33:45.096Z,101167
2017-05-09T15:36:14.580Z,101165
2017-05-09T15:38:44.496Z,101157
2017-05-09T15:41:14.006Z,101160
2017-05-09T15:43:46.375Z,101165
2017-05-09T15:46:16.233Z,101154
2017-05-09T15:48:45.529Z,101149
2017-05-09T15:51:14.832Z,101147
2017-05-09T15:53:44.631Z,101150
2017-05-09T15:56:14.322Z,101146
2017-05-09T15:58:43.672Z,101148
2017-05-09T16:01:13.334Z,101135
2017-05-09T16:03:43.099Z,101139
2017-05-09T16:06:12.583Z,101126
2017-05-09T16:08:42.273Z,101131
2017-05-09T16:11:11.815Z,101127
2017-05-09T16:13:41.134Z,101131
2017-05-09T16:16:10.456Z,101125
2017-05-09T16:18:39.876Z,101120
2017-05-09T16:21:09.200Z,101114
2017-05-09T16:23:39.296Z,101105
2017-05-09T16:26:08.805Z,101109
2017-05-09T16:28:38.328Z,101100
2017-05-09T16:31:08.494Z,101099
2017-05-09T16:33:37.936Z,101092
2017-05-09T16:36:07.330Z,101095
2017-05-09T16:38:37.156Z,101076
2017-05-09T16:41:08.817Z,101084
2017-05-09T16:43:38.500Z,101095
2017-05-09T16:46:08.335Z,101084
2017-05-09T16:48:38.046Z,101089
2017-05-09T16:51:08.374Z,101081
2017-05-09T16:53:38.088Z,101086
2017-05-09T16:56:07.644Z,101084
2017-05-09T16:58:51.454Z,101070
2017-05-09T17:01:22.438Z,101073
2017-05-09T17:03:52.189Z,101070
2017-05-09T17:06:23.795Z,101068
2017-05-09T17:08:54.177Z,101063
2017-05-09T17:11:24.499Z,101058
2017-05-09T17:13:54.721Z,101052
2017-05-09T17:16:24.440Z,101054
2017-05-09T17:19:01.757Z,101047
2017-05-09T17:24:36.877Z,101042
2017-05-09T17:27:06.792Z,101046
2017-05-09T17:29:36.189Z,101037
2017-05-09T17:32:05.488Z,101029
2017-05-09T17:34:35.301Z,101041
2017-05-09T17:37:05.227Z,101040
2017-05-09T17:39:34.835Z,101041
2017-05-09T17:42:04.240Z,101038
2017-05-09T17:44:34.358Z,101036
2017-05-09T17:47:03.871Z,101036
2017-05-09T17:49:33.808Z,101034
2017-05-09T17:52:03.633Z,101028
2017-05-09T17:54:33.190Z,101019
2017-05-09T17:57:02.605Z,101021
2017-05-09T17:59:33.456Z,101026
2017-05-09T18:02:04.763Z,101021
2017-05-09T18:04:34.713Z,101017
2017-05-09T18:07:05.084Z,101020
2017-05-09T18:09:36.473Z,101020
2017-05-09T18:12:06.957Z,101019
2017-05-09T18:14:37.808Z,101020
2017-05-09T18:17:13.749Z,101023
2017-05-09T18:19:43.835Z,101016
2017-05-09T18:22:14.834Z,101019
2017-05-09T18:24:44.528Z,101019
2017-05-09T18:27:14.190Z,101010
2017-05-09T18:29:43.484Z,101004
2017-05-09T18:32:13.412Z,100989
2017-05-09T18:34:42.720Z,101005
2017-05-09T18:37:12.528Z,100969
2017-05-09T18:39:41.816Z,100995
2017-05-09T18:42:11.389Z,100995
2017-05-09T18:44:40.846Z,100996
2017-05-09T18:47:10.147Z,100989
2017-05-09T18:49:39.443Z,100994
2017-05-09T18:52:08.751Z,100987
2017-05-09T18:54:38.050Z,100989
2017-05-09T18:57:08.827Z,100987
2017-05-09T19:00:41.370Z,100984
2017-05-09T19:03:11.901Z,100990
2017-05-09T19:05:41.202Z,100979
2017-05-09T19:08:10.485Z,100985
2017-05-09T19:10:39.803Z,100979
2017-05-09T19:13:09.412Z,100984
2017-05-09T19:15:39.319Z,100985
2017-05-09T19:18:09.034Z,100985
2017-05-09T19:20:38.542Z,100985
2017-05-09T19:23:07.848Z,100989
2017-05-09T19:25:37.352Z,100983
2017-05-09T19:28:06.656Z,100990
2017-05-09T19:30:36.161Z,100982
2017-05-09T19:33:05.668Z,100985
2017-05-09T19:35:35.181Z,100985
2017-05-09T19:38:04.579Z,100976
2017-05-09T19:40:34.187Z,100968
2017-05-09T19:43:03.740Z,100958
2017-05-09T19:45:33.204Z,100963
2017-05-09T19:48:03.999Z,100971
2017-05-09T19:50:33.443Z,100972
2017-05-09T19:53:02.932Z,100969
2017-05-09T19:55:32.863Z,100971
2017-05-09T19:58:02.323Z,100968
2017-05-09T20:00:31.580Z,100968
2017-05-09T20:03:00.820Z,100960
2017-05-09T20:05:30.483Z,100953
2017-05-09T20:07:59.996Z,100949
2017-05-09T20:10:29.489Z,100958
2017-05-09T20:12:58.997Z,100953
2017-05-09T20:15:28.504Z,100946
2017-05-09T20:17:57.804Z,100939
2017-05-09T20:20:27.719Z,100940
2017-05-09T20:22:58.191Z,100932
2017-05-09T20:25:27.553Z,100939
2017-05-09T20:27:57.263Z,100937
2017-05-09T20:30:26.974Z,100943
2017-05-09T20:32:56.481Z,100936
2017-05-09T20:35:25.768Z,100928
2017-05-09T20:37:55.084Z,100929
2017-05-09T20:40:24.604Z,100929
2017-05-09T20:42:54.104Z,100932
2017-05-09T20:45:23.602Z,100925
2017-05-09T20:47:52.932Z,100917
2017-05-09T20:50:22.414Z,100924
2017-05-09T20:52:52.126Z,100922
2017-05-09T20:55:21.629Z,100918
2017-05-09T20:57:51.136Z,100915
2017-05-09T21:00:20.642Z,100913
2017-05-09T21:02:49.921Z,100919
2017-05-09T21:05:19.249Z,100916
2017-05-09T21:07:48.962Z,100920
2017-05-09T21:10:18.466Z,100920
2017-05-09T21:12:47.970Z,100914
2017-05-09T21:15:17.275Z,100918
2017-05-09T21:17:46.778Z,100900
2017-05-09T21:20:16.174Z,100915
2017-05-09T21:22:45.482Z,100920
2017-05-09T21:25:15.193Z,100909
2017-05-09T21:27:44.619Z,100902
2017-05-09T21:30:14.819Z,100893
2017-05-09T21:32:44.122Z,100906
2017-05-09T21:35:14.037Z,100909
2017-05-09T21:37:43.781Z,100895
2017-05-09T21:40:13.237Z,100903
2017-05-09T21:42:42.807Z,100891
2017-05-09T21:45:13.069Z,100898
2017-05-09T21:47:42.593Z,100886
2017-05-09T21:50:12.101Z,100879
2017-05-09T21:52:41.404Z,100877
2017-05-09T21:55:10.746Z,100868
2017-05-09T21:57:40.417Z,100869
2017-05-09T22:00:10.136Z,100866
2017-05-09T22:02:39.844Z,100860
2017-05-09T22:05:09.344Z,100855
2017-05-09T22:07:39.240Z,100854
2017-05-09T22:10:08.769Z,100854
2017-05-09T22:12:38.271Z,100855
2017-05-09T22:15:30.309Z,100848
2017-05-09T22:18:00.019Z,100831
2017-05-09T22:20:29.259Z,100824
2017-05-09T22:22:58.884Z,100831
2017-05-09T22:25:28.386Z,100832
2017-05-09T22:27:58.247Z,100827
2017-05-09T22:30:27.548Z,100824
2017-05-09T22:32:56.887Z,100821
2017-05-09T22:35:26.353Z,100827
2017-05-09T22:37:55.639Z,100823
2017-05-09T22:40:25.167Z,100782
2017-05-09T22:42:54.453Z,100811
2017-05-09T22:45:23.966Z,100816
2017-05-09T22:47:53.264Z,100802
2017-05-09T22:50:22.578Z,100814
2017-05-09T22:52:51.878Z,100803
2017-05-09T22:55:21.587Z,100792
2017-05-09T22:57:50.892Z,100792
2017-05-09T23:00:20.287Z,100794
2017-05-09T23:02:49.689Z,100794
2017-05-09T23:05:18.998Z,100787
2017-05-09T23:07:48.304Z,100789
2017-05-09T23:10:17.800Z,100782
2017-05-09T23:12:47.102Z,100786
2017-05-09T23:15:16.619Z,100786
2017-05-09T23:17:45.899Z,100780
2017-05-09T23:20:15.526Z,100783
2017-05-09T23:22:45.338Z,100781
2017-05-09T23:25:14.828Z,100777
2017-05-09T23:27:44.156Z,100745
2017-05-09T23:30:13.651Z,100774
2017-05-09T23:32:43.158Z,100779
2017-05-09T23:35:12.384Z,100777
2017-05-09T23:37:42.376Z,100763
2017-05-09T23:40:11.885Z,100770
2017-05-09T23:42:41.372Z,100764
2017-05-09T23:45:10.689Z,100761
2017-05-09T23:47:39.967Z,100752
2017-05-09T23:50:09.900Z,100749
2017-05-09T23:52:39.414Z,100755
2017-05-09T23:55:08.920Z,100752
2017-05-09T23:57:38.621Z,100748
